createdAt,value
2023-02-13T00:00:17.848Z,6.48
2023-02-13T00:02:44.990Z,6.50
2023-02-13T00:05:11.850Z,6.51
2023-02-13T00:07:38.508Z,6.53
2023-02-13T00:10:05.714Z,6.55
2023-02-13T00:12:32.268Z,6.57
2023-02-13T00:14:59.262Z,6.59
2023-02-13T00:17:26.254Z,6.60
2023-02-13T00:19:52.850Z,6.62
2023-02-13T00:22:19.430Z,6.61
2023-02-13T00:24:46.297Z,6.59
2023-02-13T00:27:12.996Z,6.59
2023-02-13T00:29:39.683Z,6.56
2023-02-13T00:32:06.590Z,6.55
2023-02-13T00:34:33.372Z,6.48
2023-02-13T00:37:00.093Z,6.40
2023-02-13T00:39:26.744Z,6.30
2023-02-13T00:41:53.274Z,6.19
2023-02-13T00:44:20.027Z,6.08
2023-02-13T00:46:46.639Z,5.95
2023-02-13T00:49:13.239Z,5.87
2023-02-13T00:51:39.850Z,5.83
2023-02-13T00:54:06.430Z,5.77
2023-02-13T00:56:33.305Z,5.74
2023-02-13T00:58:59.888Z,5.69
2023-02-13T01:01:26.487Z,5.67
2023-02-13T01:03:53.173Z,5.68
2023-02-13T01:06:19.836Z,5.65
2023-02-13T01:08:46.394Z,5.61
2023-02-13T01:11:13.166Z,5.59
2023-02-13T01:13:39.760Z,5.60
2023-02-13T01:16:06.858Z,5.59
2023-02-13T01:18:33.441Z,5.59
2023-02-13T01:21:06.660Z,5.56
2023-02-13T01:23:35.733Z,5.55
2023-02-13T01:26:07.645Z,5.50
2023-02-13T01:28:34.653Z,5.39
2023-02-13T01:31:01.727Z,5.38
2023-02-13T01:33:29.734Z,5.39
2023-02-13T01:35:56.536Z,5.38
2023-02-13T01:38:23.173Z,5.38
2023-02-13T01:40:52.714Z,5.40
2023-02-13T01:43:23.480Z,5.41
2023-02-13T01:45:55.198Z,5.38
2023-02-13T01:48:26.286Z,5.34
2023-02-13T01:51:01.944Z,5.31
2023-02-13T01:53:43.897Z,5.27
2023-02-13T01:56:17.848Z,5.25
2023-02-13T01:58:47.272Z,5.23
2023-02-13T02:01:13.857Z,5.24
2023-02-13T02:03:45.598Z,5.22
2023-02-13T02:06:18.883Z,5.21
2023-02-13T02:08:49.132Z,5.22
2023-02-13T02:11:22.894Z,5.22
2023-02-13T02:13:50.449Z,5.20
2023-02-13T02:16:17.152Z,5.18
2023-02-13T02:18:46.373Z,5.14
2023-02-13T02:21:51.925Z,5.06
2023-02-13T02:24:40.079Z,5.03
2023-02-13T02:27:41.930Z,4.97
2023-02-13T02:30:26.735Z,4.93
2023-02-13T02:33:16.867Z,4.91
2023-02-13T02:35:48.384Z,4.84
2023-02-13T02:38:51.771Z,4.78
2023-02-13T02:41:42.837Z,4.77
2023-02-13T02:44:51.324Z,4.71
2023-02-13T02:47:53.573Z,4.75
2023-02-13T02:50:43.142Z,4.79
2023-02-13T02:53:35.242Z,4.78
2023-02-13T02:56:09.812Z,4.83
2023-02-13T02:59:14.504Z,4.83
2023-02-13T03:02:00.983Z,4.95
2023-02-13T03:04:58.374Z,5.02
2023-02-13T03:07:25.120Z,5.08
2023-02-13T03:10:14.344Z,5.11
2023-02-13T03:13:14.186Z,5.11
2023-02-13T03:16:02.292Z,5.14
2023-02-13T03:18:55.231Z,5.12
2023-02-13T03:22:08.643Z,5.06
2023-02-13T03:24:50.560Z,4.97
2023-02-13T03:28:05.256Z,4.91
2023-02-13T03:30:53.121Z,4.88
2023-02-13T03:33:28.771Z,4.86
2023-02-13T03:36:26.058Z,4.84
2023-02-13T03:38:55.277Z,4.82
2023-02-13T03:41:55.879Z,4.77
2023-02-13T03:44:28.166Z,4.74
2023-02-13T03:46:59.324Z,4.75
2023-02-13T03:49:53.591Z,4.76
2023-02-13T03:52:44.446Z,4.75
2023-02-13T03:55:42.657Z,4.75
2023-02-13T03:58:42.562Z,4.74
2023-02-13T04:01:11.953Z,4.76
2023-02-13T04:03:54.414Z,4.75
2023-02-13T04:06:31.560Z,4.76
2023-02-13T04:08:58.460Z,4.81
2023-02-13T04:11:55.599Z,4.76
2023-02-13T04:14:28.991Z,4.76
2023-02-13T04:17:05.636Z,4.74
2023-02-13T04:19:33.122Z,4.74
2023-02-13T04:22:01.709Z,4.72
2023-02-13T04:24:29.199Z,4.71
2023-02-13T04:26:56.298Z,4.71
2023-02-13T04:29:23.984Z,4.71
2023-02-13T04:31:50.793Z,4.71
2023-02-13T04:34:18.126Z,4.71
2023-02-13T04:36:44.726Z,4.70
2023-02-13T04:39:11.798Z,4.75
2023-02-13T04:41:38.354Z,4.75
2023-02-13T04:44:05.088Z,4.78
2023-02-13T04:46:31.810Z,4.80
2023-02-13T04:48:58.437Z,4.82
2023-02-13T04:51:24.993Z,4.85
2023-02-13T04:53:51.521Z,4.85
2023-02-13T04:56:19.825Z,4.86
2023-02-13T04:58:46.640Z,4.87
2023-02-13T05:01:14.489Z,4.88
2023-02-13T05:03:41.499Z,4.88
2023-02-13T05:06:08.252Z,4.87
2023-02-13T05:08:35.484Z,4.86
2023-02-13T05:11:02.304Z,4.84
2023-02-13T05:13:28.868Z,4.81
2023-02-13T05:15:55.501Z,4.82
2023-02-13T05:18:22.139Z,4.82
2023-02-13T05:21:08.650Z,4.82
2023-02-13T05:23:35.415Z,4.79
2023-02-13T05:26:02.302Z,4.75
2023-02-13T05:28:47.292Z,4.73
2023-02-13T05:31:14.091Z,4.75
2023-02-13T05:33:40.731Z,4.75
2023-02-13T05:36:08.019Z,4.75
2023-02-13T05:38:35.374Z,4.74
2023-02-13T05:41:02.538Z,4.74
2023-02-13T05:43:30.231Z,4.72
2023-02-13T05:46:07.647Z,4.68
2023-02-13T05:48:35.132Z,4.66
2023-02-13T05:51:01.947Z,4.66
2023-02-13T05:53:29.939Z,4.66
2023-02-13T05:55:56.770Z,4.66
2023-02-13T05:58:23.649Z,4.68
2023-02-13T06:00:50.419Z,5.11
2023-02-13T06:03:17.140Z,5.93
2023-02-13T06:05:43.713Z,6.80
2023-02-13T06:08:10.308Z,7.51
2023-02-13T06:10:37.062Z,7.92
2023-02-13T06:13:03.675Z,7.99
2023-02-13T06:15:30.260Z,7.91
2023-02-13T06:17:56.824Z,7.64
2023-02-13T06:20:23.382Z,7.35
2023-02-13T06:22:51.226Z,7.06
2023-02-13T06:25:18.324Z,6.70
2023-02-13T06:27:44.994Z,6.37
2023-02-13T06:30:12.423Z,6.14
2023-02-13T06:32:39.027Z,5.97
2023-02-13T06:35:06.338Z,5.79
2023-02-13T06:37:33.327Z,5.65
2023-02-13T06:39:59.868Z,5.49
2023-02-13T06:42:26.457Z,5.39
2023-02-13T06:44:53.044Z,5.28
2023-02-13T06:47:19.820Z,5.18
2023-02-13T06:49:46.374Z,5.11
2023-02-13T06:52:12.981Z,5.07
2023-02-13T06:54:47.240Z,5.02
2023-02-13T06:57:14.547Z,4.97
2023-02-13T06:59:41.090Z,4.95
2023-02-13T07:02:13.147Z,4.93
2023-02-13T07:04:40.226Z,4.93
2023-02-13T07:07:06.884Z,4.89
2023-02-13T07:09:33.492Z,4.82
2023-02-13T07:12:03.923Z,4.75
2023-02-13T07:14:30.513Z,4.73
2023-02-13T07:16:57.867Z,4.68
2023-02-13T07:19:24.457Z,4.57
2023-02-13T07:21:51.154Z,4.44
2023-02-13T07:24:17.733Z,4.30
2023-02-13T07:26:44.312Z,4.17
2023-02-13T07:29:12.252Z,4.07
2023-02-13T07:31:39.945Z,4.00
2023-02-13T07:34:07.316Z,3.97
2023-02-13T07:36:34.001Z,3.95
2023-02-13T07:39:00.557Z,3.97
2023-02-13T07:41:27.172Z,3.99
2023-02-13T07:43:54.732Z,4.01
2023-02-13T07:46:21.461Z,4.05
2023-02-13T07:48:48.161Z,4.10
2023-02-13T07:51:15.023Z,4.15
2023-02-13T07:53:41.561Z,4.22
2023-02-13T07:56:09.781Z,4.27
2023-02-13T07:58:37.682Z,4.28
2023-02-13T08:01:09.738Z,4.27
2023-02-13T08:03:36.781Z,4.30
2023-02-13T08:06:04.414Z,4.31
2023-02-13T08:08:31.246Z,4.35
2023-02-13T08:11:17.095Z,4.38
2023-02-13T08:13:44.285Z,4.45
2023-02-13T08:16:10.869Z,4.50
2023-02-13T08:18:37.447Z,4.58
2023-02-13T08:21:04.717Z,4.64
2023-02-13T08:23:31.388Z,4.70
2023-02-13T08:26:02.101Z,4.77
2023-02-13T08:28:31.945Z,4.83
2023-02-13T08:30:58.630Z,4.89
2023-02-13T08:33:25.347Z,4.95
2023-02-13T08:35:51.885Z,5.02
2023-02-13T08:38:18.553Z,5.10
2023-02-13T08:40:45.166Z,5.20
2023-02-13T08:43:11.712Z,5.32
2023-02-13T08:45:38.465Z,5.43
2023-02-13T08:48:05.176Z,5.53
2023-02-13T08:50:31.936Z,5.65
2023-02-13T08:52:59.228Z,5.76
2023-02-13T08:55:27.094Z,5.85
2023-02-13T08:57:53.705Z,5.95
2023-02-13T09:00:20.808Z,6.03
2023-02-13T09:02:47.420Z,6.12
2023-02-13T09:05:14.100Z,6.18
2023-02-13T09:07:40.638Z,6.23
2023-02-13T09:10:07.830Z,6.29
2023-02-13T09:12:34.410Z,6.38
2023-02-13T09:15:00.963Z,6.47
2023-02-13T09:17:27.552Z,6.57
2023-02-13T09:19:54.118Z,6.61
2023-02-13T09:22:20.661Z,6.66
2023-02-13T09:24:47.223Z,6.74
2023-02-13T09:27:13.864Z,6.79
2023-02-13T09:29:40.439Z,6.86
2023-02-13T09:32:07.197Z,6.90
2023-02-13T09:34:33.891Z,6.93
2023-02-13T09:37:00.528Z,6.97
2023-02-13T09:39:27.080Z,7.05
2023-02-13T09:41:54.780Z,7.14
2023-02-13T09:44:43.382Z,7.22
2023-02-13T09:47:36.476Z,7.35
2023-02-13T09:50:15.025Z,7.49
2023-02-13T09:52:44.579Z,7.59
2023-02-13T09:55:25.228Z,7.66
2023-02-13T09:58:20.893Z,7.65
2023-02-13T10:00:56.823Z,7.71
2023-02-13T10:03:36.421Z,7.78
2023-02-13T10:06:26.118Z,7.88
2023-02-13T10:09:02.888Z,7.91
2023-02-13T10:11:40.846Z,7.99
2023-02-13T10:14:13.561Z,8.05
2023-02-13T10:16:53.668Z,8.04
2023-02-13T10:19:36.436Z,8.03
2023-02-13T10:22:16.804Z,8.00
2023-02-13T10:24:52.384Z,8.05
2023-02-13T10:27:18.877Z,8.13
2023-02-13T10:30:06.883Z,8.20
2023-02-13T10:33:21.055Z,8.19
2023-02-13T10:36:07.012Z,8.23
2023-02-13T10:38:39.566Z,8.27
2023-02-13T10:41:15.477Z,8.36
2023-02-13T10:44:25.351Z,8.47
2023-02-13T10:47:10.752Z,8.59
2023-02-13T10:49:55.355Z,8.75
2023-02-13T10:53:00.138Z,8.80
2023-02-13T10:55:32.723Z,8.91
2023-02-13T10:58:14.290Z,9.06
2023-02-13T11:00:44.486Z,9.23
2023-02-13T11:03:30.315Z,9.36
2023-02-13T11:05:59.914Z,9.53
2023-02-13T11:08:40.819Z,9.60
2023-02-13T11:11:34.494Z,9.58
2023-02-13T11:14:10.055Z,9.60
2023-02-13T11:16:57.444Z,9.59
2023-02-13T11:19:52.015Z,9.50
2023-02-13T11:22:30.504Z,9.47
2023-02-13T11:25:19.208Z,9.60
2023-02-13T11:27:47.879Z,9.69
2023-02-13T11:30:23.186Z,9.79
2023-02-13T11:33:02.421Z,9.83
2023-02-13T11:35:32.516Z,9.91
2023-02-13T11:38:15.725Z,10.04
2023-02-13T11:40:45.082Z,10.12
2023-02-13T11:43:29.195Z,10.17
2023-02-13T11:46:08.595Z,10.25
2023-02-13T11:48:35.760Z,10.35
2023-02-13T11:51:03.590Z,10.40
2023-02-13T11:53:36.464Z,10.51
2023-02-13T11:56:11.096Z,10.58
2023-02-13T11:58:38.584Z,10.62
2023-02-13T12:01:25.799Z,10.69
2023-02-13T12:04:05.261Z,10.81
2023-02-13T12:06:39.693Z,10.97
2023-02-13T12:09:15.371Z,11.11
2023-02-13T12:11:53.715Z,11.17
2023-02-13T12:14:23.015Z,11.26
2023-02-13T12:17:07.218Z,11.29
2023-02-13T12:19:41.987Z,11.36
2023-02-13T12:22:40.568Z,11.40
2023-02-13T12:25:45.433Z,11.47
2023-02-13T12:28:16.904Z,11.57
2023-02-13T12:30:52.683Z,11.62
2023-02-13T12:33:25.194Z,11.69
2023-02-13T12:36:25.265Z,11.72
2023-02-13T12:39:18.265Z,11.81
2023-02-13T12:42:12.350Z,11.92
2023-02-13T12:44:57.726Z,11.98
2023-02-13T12:47:29.217Z,12.03
2023-02-13T12:50:14.169Z,12.01
2023-02-13T12:52:52.068Z,11.99
2023-02-13T12:55:49.000Z,12.00
2023-02-13T12:58:33.832Z,12.06
2023-02-13T13:01:37.713Z,12.12
2023-02-13T13:04:36.601Z,12.19
2023-02-13T13:07:06.144Z,12.28
2023-02-13T13:09:56.037Z,12.35
2023-02-13T13:12:25.570Z,12.41
2023-02-13T13:15:23.218Z,12.45
2023-02-13T13:18:02.086Z,12.56
2023-02-13T13:21:10.034Z,12.62
2023-02-13T13:23:39.435Z,12.72
2023-02-13T13:26:26.268Z,12.74
2023-02-13T13:28:56.572Z,12.77
2023-02-13T13:31:26.335Z,12.82
2023-02-13T13:33:58.356Z,12.95
2023-02-13T13:36:46.217Z,13.13
2023-02-13T13:39:29.824Z,13.27
2023-02-13T13:42:01.053Z,13.53
2023-02-13T13:44:42.789Z,13.82
2023-02-13T13:47:39.338Z,14.25
2023-02-13T13:50:18.017Z,14.64
2023-02-13T13:53:05.859Z,14.91
2023-02-13T13:55:50.518Z,15.24
2023-02-13T13:58:31.308Z,15.55
2023-02-13T14:01:24.197Z,15.88
2023-02-13T14:03:52.103Z,16.20
2023-02-13T14:06:22.187Z,16.44
2023-02-13T14:08:49.366Z,16.66
2023-02-13T14:11:36.183Z,16.85
2023-02-13T14:14:27.870Z,17.14
2023-02-13T14:16:59.787Z,17.37
2023-02-13T14:19:43.535Z,17.42
2023-02-13T14:22:19.010Z,17.74
2023-02-13T14:24:55.531Z,17.91
2023-02-13T14:27:34.213Z,18.16
2023-02-13T14:30:01.947Z,18.42
2023-02-13T14:32:31.438Z,18.47
2023-02-13T14:35:02.397Z,18.61
2023-02-13T14:37:47.937Z,18.68
2023-02-13T14:40:20.269Z,18.77
2023-02-13T14:42:53.755Z,18.78
2023-02-13T14:45:27.321Z,18.91
2023-02-13T14:47:57.206Z,18.91
2023-02-13T14:50:32.690Z,18.87
2023-02-13T14:53:03.937Z,18.92
2023-02-13T14:55:42.947Z,19.01
2023-02-13T14:58:20.548Z,19.17
2023-02-13T15:00:55.010Z,19.19
2023-02-13T15:03:54.544Z,19.23
2023-02-13T15:06:34.063Z,19.18
2023-02-13T15:09:04.698Z,19.11
2023-02-13T15:11:45.356Z,18.92
2023-02-13T15:14:19.097Z,18.70
2023-02-13T15:16:50.697Z,18.45
2023-02-13T15:19:20.182Z,18.10
2023-02-13T15:21:53.947Z,17.49
2023-02-13T15:24:25.034Z,16.85
2023-02-13T15:27:20.191Z,16.00
2023-02-13T15:30:12.551Z,15.42
2023-02-13T15:32:39.052Z,14.73
2023-02-13T15:35:31.111Z,14.29
2023-02-13T15:37:59.124Z,13.95
2023-02-13T15:40:37.194Z,13.62
2023-02-13T15:43:04.037Z,13.32
2023-02-13T15:45:30.869Z,13.03
2023-02-13T15:47:58.099Z,12.80
2023-02-13T15:50:24.615Z,12.59
2023-02-13T15:52:51.751Z,12.41
2023-02-13T15:55:21.459Z,12.26
2023-02-13T15:57:48.795Z,12.13
2023-02-13T16:00:27.507Z,12.00
2023-02-13T16:02:55.992Z,11.91
2023-02-13T16:05:38.893Z,11.81
2023-02-13T16:08:27.462Z,11.62
2023-02-13T16:11:29.799Z,11.48
2023-02-13T16:13:56.329Z,11.39
2023-02-13T16:16:24.109Z,11.29
2023-02-13T16:18:52.128Z,11.20
2023-02-13T16:21:29.196Z,11.10
2023-02-13T16:24:02.477Z,11.01
2023-02-13T16:26:29.281Z,10.94
2023-02-13T16:28:55.918Z,10.87
2023-02-13T16:31:22.819Z,10.77
2023-02-13T16:33:49.620Z,10.69
2023-02-13T16:36:16.138Z,10.58
2023-02-13T16:38:48.028Z,10.47
2023-02-13T16:41:17.289Z,10.35
2023-02-13T16:44:04.138Z,10.22
2023-02-13T16:46:41.231Z,10.18
2023-02-13T16:49:10.668Z,10.09
2023-02-13T16:51:58.485Z,9.94
2023-02-13T16:54:38.028Z,9.84
2023-02-13T16:57:20.845Z,9.70
2023-02-13T16:59:47.356Z,9.62
2023-02-13T17:02:14.421Z,9.51
2023-02-13T17:04:50.269Z,9.42
2023-02-13T17:07:30.024Z,9.33
2023-02-13T17:10:20.650Z,9.24
2023-02-13T17:12:48.601Z,9.15
2023-02-13T17:15:18.454Z,9.08
2023-02-13T17:17:45.875Z,8.99
2023-02-13T17:20:17.973Z,8.93
2023-02-13T17:22:46.482Z,8.87
2023-02-13T17:25:29.510Z,8.76
2023-02-13T17:27:58.893Z,8.70
2023-02-13T17:30:29.152Z,8.64
2023-02-13T17:32:59.563Z,8.58
2023-02-13T17:35:26.407Z,8.55
2023-02-13T17:37:53.087Z,8.49
2023-02-13T17:40:21.974Z,8.43
2023-02-13T17:42:53.341Z,8.37
2023-02-13T17:45:22.907Z,8.32
2023-02-13T17:47:49.748Z,8.26
2023-02-13T17:50:17.503Z,8.20
2023-02-13T17:52:45.819Z,8.15
2023-02-13T17:55:26.969Z,8.11
2023-02-13T17:57:56.547Z,8.08
2023-02-13T18:00:28.014Z,8.04
2023-02-13T18:02:55.317Z,7.99
2023-02-13T18:05:22.465Z,7.95
2023-02-13T18:07:49.557Z,7.90
2023-02-13T18:10:37.254Z,7.78
2023-02-13T18:13:04.538Z,7.77
2023-02-13T18:15:36.246Z,7.72
2023-02-13T18:18:02.857Z,7.65
2023-02-13T18:20:29.872Z,7.62
2023-02-13T18:22:56.405Z,7.57
2023-02-13T18:25:23.724Z,7.53
2023-02-13T18:27:50.307Z,7.48
2023-02-13T18:30:19.721Z,7.42
2023-02-13T18:32:51.928Z,7.37
2023-02-13T18:35:18.997Z,7.34
2023-02-13T18:37:45.668Z,7.31
2023-02-13T18:40:14.995Z,7.28
2023-02-13T18:42:41.634Z,7.24
2023-02-13T18:45:08.720Z,7.18
2023-02-13T18:47:35.324Z,7.12
2023-02-13T18:50:01.928Z,7.08
2023-02-13T18:52:28.470Z,7.04
2023-02-13T18:54:55.614Z,7.00
2023-02-13T18:57:22.473Z,6.96
2023-02-13T18:59:49.045Z,6.92
2023-02-13T19:02:15.685Z,6.87
2023-02-13T19:04:42.458Z,6.83
2023-02-13T19:07:09.010Z,6.82
2023-02-13T19:09:40.045Z,6.78
2023-02-13T19:12:07.418Z,6.74
2023-02-13T19:14:34.041Z,6.70
2023-02-13T19:17:00.683Z,6.67
2023-02-13T19:19:27.297Z,6.65
2023-02-13T19:21:53.884Z,6.62
2023-02-13T19:24:20.455Z,6.60
2023-02-13T19:26:47.401Z,6.54
2023-02-13T19:29:13.979Z,6.49
2023-02-13T19:31:41.400Z,6.40
2023-02-13T19:34:08.194Z,6.33
2023-02-13T19:36:34.998Z,6.26
2023-02-13T19:39:04.086Z,6.21
2023-02-13T19:41:31.627Z,6.15
2023-02-13T19:43:58.658Z,6.10
2023-02-13T19:46:30.270Z,6.05
2023-02-13T19:48:57.065Z,6.02
2023-02-13T19:51:27.678Z,5.98
2023-02-13T19:54:12.876Z,5.88
2023-02-13T19:56:40.815Z,5.87
2023-02-13T19:59:10.539Z,5.84
2023-02-13T20:01:37.225Z,5.81
2023-02-13T20:04:03.759Z,5.77
2023-02-13T20:06:35.012Z,5.74
2023-02-13T20:09:04.787Z,5.71
2023-02-13T20:11:31.422Z,5.67
2023-02-13T20:14:03.962Z,5.65
2023-02-13T20:16:33.075Z,5.59
2023-02-13T20:19:07.030Z,5.56
2023-02-13T20:21:35.145Z,5.51
2023-02-13T20:24:03.134Z,5.49
2023-02-13T20:26:30.643Z,5.48
2023-02-13T20:28:59.957Z,5.44
2023-02-13T20:31:29.073Z,5.41
2023-02-13T20:33:56.299Z,5.37
2023-02-13T20:36:25.986Z,5.35
2023-02-13T20:38:55.131Z,5.31
2023-02-13T20:41:24.461Z,5.28
2023-02-13T20:43:52.195Z,5.23
2023-02-13T20:46:19.215Z,5.20
2023-02-13T20:48:48.015Z,5.17
2023-02-13T20:51:16.122Z,5.14
2023-02-13T20:53:43.901Z,5.11
2023-02-13T20:56:13.519Z,5.06
2023-02-13T20:58:41.668Z,5.01
2023-02-13T21:01:35.688Z,4.90
2023-02-13T21:04:02.443Z,4.89
2023-02-13T21:06:31.715Z,4.83
2023-02-13T21:08:58.924Z,4.80
2023-02-13T21:11:26.330Z,4.76
2023-02-13T21:13:52.870Z,4.74
2023-02-13T21:16:22.961Z,4.72
2023-02-13T21:18:52.373Z,4.70
2023-02-13T21:21:20.261Z,4.68
2023-02-13T21:23:47.539Z,4.67
2023-02-13T21:26:17.067Z,4.66
2023-02-13T21:28:48.480Z,4.64
2023-02-13T21:31:18.918Z,4.61
2023-02-13T21:33:46.056Z,4.61
2023-02-13T21:36:13.371Z,4.62
2023-02-13T21:38:40.950Z,4.61
2023-02-13T21:41:13.315Z,4.61
2023-02-13T21:43:42.068Z,4.59
2023-02-13T21:46:14.581Z,4.53
2023-02-13T21:48:42.011Z,4.51
2023-02-13T21:51:17.134Z,4.48
2023-02-13T21:53:44.970Z,4.47
2023-02-13T21:56:14.214Z,4.44
2023-02-13T21:58:42.424Z,4.43
2023-02-13T22:01:25.400Z,4.41
2023-02-13T22:04:00.141Z,4.39
2023-02-13T22:06:28.729Z,4.40
2023-02-13T22:09:03.904Z,4.39
2023-02-13T22:11:30.846Z,4.40
2023-02-13T22:14:01.697Z,4.37
2023-02-13T22:16:30.098Z,4.34
2023-02-13T22:18:57.149Z,4.30
2023-02-13T22:21:25.433Z,4.28
2023-02-13T22:23:53.143Z,4.27
2023-02-13T22:26:19.710Z,4.27
2023-02-13T22:28:47.280Z,4.29
2023-02-13T22:31:15.103Z,4.29
2023-02-13T22:33:42.986Z,4.30
2023-02-13T22:36:13.140Z,4.31
2023-02-13T22:38:41.100Z,4.33
2023-02-13T22:41:14.291Z,4.31
2023-02-13T22:43:41.816Z,4.32
2023-02-13T22:46:10.717Z,4.31
2023-02-13T22:48:38.998Z,4.31
2023-02-13T22:51:08.867Z,4.28
2023-02-13T22:53:36.617Z,4.26
2023-02-13T22:56:04.863Z,4.22
2023-02-13T22:58:31.664Z,4.19
2023-02-13T23:00:58.836Z,4.18
2023-02-13T23:03:25.828Z,4.18
2023-02-13T23:05:52.413Z,4.17
2023-02-13T23:08:19.377Z,4.16
2023-02-13T23:11:08.472Z,4.13
2023-02-13T23:13:35.438Z,4.09
2023-02-13T23:16:02.035Z,4.03
2023-02-13T23:18:28.717Z,3.99
2023-02-13T23:20:55.263Z,3.96
2023-02-13T23:23:22.380Z,3.95
2023-02-13T23:25:48.977Z,3.94
2023-02-13T23:28:15.617Z,3.93
2023-02-13T23:30:42.314Z,3.94
2023-02-13T23:33:08.975Z,3.91
2023-02-13T23:35:35.550Z,3.89
2023-02-13T23:38:02.129Z,3.87
2023-02-13T23:40:28.755Z,3.82
2023-02-13T23:42:55.276Z,3.80
2023-02-13T23:45:21.830Z,3.78
2023-02-13T23:47:48.391Z,3.76
2023-02-13T23:50:14.977Z,3.74
2023-02-13T23:52:41.529Z,3.73
2023-02-13T23:55:08.433Z,3.72
2023-02-13T23:57:35.631Z,3.73
